createdAt,value
2018-10-04T00:01:27.758Z,102264.72
2018-10-04T00:03:58.053Z,102266.44
2018-10-04T00:06:28.307Z,102271.72
2018-10-04T00:08:58.698Z,102268.34
2018-10-04T00:11:31.037Z,102275.83
2018-10-04T00:14:00.537Z,102281.17
2018-10-04T00:16:31.373Z,102283.41
2018-10-04T00:19:00.818Z,102278.98
2018-10-04T00:21:30.970Z,102283.85
2018-10-04T00:24:00.487Z,102285.03
2018-10-04T00:26:30.706Z,102284.70
2018-10-04T00:29:00.848Z,102281.11
2018-10-04T00:31:31.126Z,102273.26
2018-10-04T00:34:00.553Z,102263.25
2018-10-04T00:36:30.162Z,102272.15
2018-10-04T00:38:59.608Z,102270.09
2018-10-04T00:41:29.231Z,102260.08
2018-10-04T00:43:58.823Z,102267.19
2018-10-04T00:46:28.617Z,102271.72
2018-10-04T00:49:01.337Z,102274.96
2018-10-04T00:51:32.973Z,102272.80
2018-10-04T00:54:02.410Z,102269.41
2018-10-04T00:56:32.466Z,102262.00
2018-10-04T00:59:01.937Z,102262.00
2018-10-04T01:01:32.604Z,102264.23
2018-10-04T01:04:02.302Z,102259.02
2018-10-04T01:06:32.145Z,102254.73
2018-10-04T01:09:01.696Z,102251.68
2018-10-04T01:11:32.070Z,102255.64
2018-10-04T01:14:01.568Z,102258.17
2018-10-04T01:16:31.147Z,102251.86
2018-10-04T01:19:01.611Z,102257.91
2018-10-04T01:21:31.024Z,102258.73
2018-10-04T01:24:00.660Z,102260.86
2018-10-04T01:26:46.828Z,102252.47
2018-10-04T01:29:19.144Z,102245.84
2018-10-04T01:31:48.517Z,102248.48
2018-10-04T01:34:17.857Z,102245.57
2018-10-04T01:36:47.310Z,102245.09
2018-10-04T01:39:16.695Z,102246.38
2018-10-04T01:41:46.123Z,102236.64
2018-10-04T01:44:15.389Z,102234.03
2018-10-04T01:46:44.929Z,102242.77
2018-10-04T01:49:14.338Z,102236.61
2018-10-04T01:51:43.806Z,102241.81
2018-10-04T01:54:13.386Z,102245.70
2018-10-04T01:56:42.752Z,102250.54
2018-10-04T01:59:13.960Z,102249.16
2018-10-04T02:01:43.432Z,102247.36
2018-10-04T02:04:12.990Z,102254.77
2018-10-04T02:06:42.366Z,102255.54
2018-10-04T02:09:13.036Z,102253.75
2018-10-04T02:11:42.492Z,102254.63
2018-10-04T02:14:12.029Z,102247.22
2018-10-04T02:16:41.395Z,102245.86
2018-10-04T02:19:10.839Z,102244.61
2018-10-04T02:21:40.642Z,102248.09
2018-10-04T02:24:10.075Z,102244.44
2018-10-04T02:26:41.923Z,102240.81
2018-10-04T02:29:12.817Z,102247.99
2018-10-04T02:31:42.412Z,102249.38
2018-10-04T02:34:11.886Z,102237.98
2018-10-04T02:36:42.260Z,102239.74
2018-10-04T02:39:12.430Z,102235.30
2018-10-04T02:41:41.834Z,102229.66
2018-10-04T02:44:11.157Z,102228.34
2018-10-04T02:46:40.557Z,102220.87
2018-10-04T02:49:10.089Z,102227.46
2018-10-04T02:51:39.576Z,102229.73
2018-10-04T02:54:13.685Z,102225.77
2018-10-04T02:56:48.313Z,102229.66
2018-10-04T02:59:17.643Z,102224.38
2018-10-04T03:01:48.306Z,102220.42
2018-10-04T03:04:18.183Z,102217.27
2018-10-04T03:06:48.439Z,102217.34
2018-10-04T03:09:19.067Z,102216.53
2018-10-04T03:11:48.585Z,102208.84
2018-10-04T03:14:18.841Z,102213.68
2018-10-04T03:16:49.138Z,102214.16
2018-10-04T03:19:19.730Z,102212.36
2018-10-04T03:21:49.202Z,102205.26
2018-10-04T03:24:33.915Z,102202.55
2018-10-04T03:27:20.848Z,102201.62
2018-10-04T03:29:56.730Z,102204.70
2018-10-04T03:32:29.307Z,102206.86
2018-10-04T03:35:01.928Z,102201.66
2018-10-04T03:37:31.979Z,102204.30
2018-10-04T03:40:05.616Z,102195.06
2018-10-04T03:42:39.638Z,102199.09
2018-10-04T03:45:12.777Z,102199.05
2018-10-04T03:47:46.685Z,102195.91
2018-10-04T03:50:19.262Z,102207.74
2018-10-04T03:52:52.276Z,102204.62
2018-10-04T03:55:25.253Z,102202.83
2018-10-04T03:57:54.850Z,102202.42
2018-10-04T04:00:27.293Z,102197.48
2018-10-04T04:03:00.345Z,102200.92
2018-10-04T04:05:33.403Z,102196.08
2018-10-04T04:08:05.787Z,102202.28
2018-10-04T04:10:39.659Z,102195.20
2018-10-04T04:13:12.182Z,102187.69
2018-10-04T04:15:45.290Z,102187.23
2018-10-04T04:18:17.408Z,102189.08
2018-10-04T04:20:49.530Z,102184.72
2018-10-04T04:23:23.601Z,102177.31
2018-10-04T04:25:56.555Z,102183.03
2018-10-04T04:28:29.135Z,102182.05
2018-10-04T04:31:02.165Z,102173.16
2018-10-04T04:33:36.278Z,102172.17
2018-10-04T04:36:08.737Z,102181.77
2018-10-04T04:39:02.649Z,102179.13
2018-10-04T04:42:09.092Z,102183.89
2018-10-04T04:45:07.028Z,102188.77
2018-10-04T04:48:05.491Z,102193.13
2018-10-04T04:51:01.976Z,102191.34
2018-10-04T04:54:01.816Z,102200.94
2018-10-04T04:56:58.623Z,102192.94
2018-10-04T04:59:55.061Z,102197.45
2018-10-04T05:02:52.930Z,102200.50
2018-10-04T05:05:53.765Z,102193.89
2018-10-04T05:08:50.933Z,102201.05
2018-10-04T05:11:50.426Z,102196.29
2018-10-04T05:14:50.113Z,102194.09
2018-10-04T05:17:47.466Z,102197.17
2018-10-04T05:20:30.226Z,102195.48
2018-10-04T05:23:02.308Z,102198.93
2018-10-04T05:25:36.304Z,102194.05
2018-10-04T05:28:09.096Z,102192.33
2018-10-04T05:30:43.139Z,102193.13
2018-10-04T05:33:15.665Z,102194.09
2018-10-04T05:35:48.214Z,102193.17
2018-10-04T05:38:20.940Z,102197.65
2018-10-04T05:41:00.401Z,102195.05
2018-10-04T05:43:40.010Z,102201.53
2018-10-04T05:46:20.498Z,102197.50
2018-10-04T05:49:06.058Z,102203.58
2018-10-04T05:51:56.582Z,102199.66
2018-10-04T05:54:32.041Z,102198.77
2018-10-04T05:57:03.614Z,102199.22
2018-10-04T05:59:33.953Z,102203.18
2018-10-04T06:02:04.027Z,102198.77
2018-10-04T06:04:34.065Z,102198.73
2018-10-04T06:07:04.385Z,102202.30
2018-10-04T06:09:34.823Z,102202.73
2018-10-04T06:12:04.721Z,102200.09
2018-10-04T06:14:34.863Z,102204.90
2018-10-04T06:17:04.315Z,102208.82
2018-10-04T06:19:33.668Z,102206.14
2018-10-04T06:22:04.080Z,102203.58
2018-10-04T06:24:33.352Z,102204.27
2018-10-04T06:27:06.653Z,102204.11
2018-10-04T06:29:38.300Z,102204.98
2018-10-04T06:32:10.038Z,102210.14
2018-10-04T06:34:42.932Z,102206.62
2018-10-04T06:37:15.158Z,102211.98
2018-10-04T06:39:49.880Z,102216.83
2018-10-04T06:42:21.190Z,102220.98
2018-10-04T06:44:52.385Z,102213.42
2018-10-04T06:47:21.773Z,102223.91
2018-10-04T06:49:51.945Z,102222.95
2018-10-04T06:52:21.344Z,102217.19
2018-10-04T06:54:51.262Z,102216.30
2018-10-04T06:57:20.647Z,102215.02
2018-10-04T06:59:50.986Z,102208.73
2018-10-04T07:02:21.014Z,102214.54
2018-10-04T07:04:51.410Z,102207.13
2018-10-04T07:07:21.864Z,102217.11
2018-10-04T07:09:51.489Z,102221.03
2018-10-04T07:12:21.000Z,102217.98
2018-10-04T07:14:52.046Z,102223.63
2018-10-04T07:17:21.683Z,102227.63
2018-10-04T07:19:52.280Z,102226.39
2018-10-04T07:22:21.661Z,102222.95
2018-10-04T07:24:52.635Z,102226.47
2018-10-04T07:27:21.953Z,102224.22
2018-10-04T07:29:51.460Z,102238.55
2018-10-04T07:32:21.732Z,102236.67
2018-10-04T07:34:51.190Z,102234.88
2018-10-04T07:37:21.038Z,102239.19
2018-10-04T07:39:51.317Z,102238.58
2018-10-04T07:42:20.975Z,102242.02
2018-10-04T07:44:50.387Z,102238.37
2018-10-04T07:47:20.033Z,102243.61
2018-10-04T07:49:49.405Z,102243.57
2018-10-04T07:52:19.493Z,102247.72
2018-10-04T07:54:48.878Z,102255.21
2018-10-04T07:57:18.153Z,102252.08
2018-10-04T07:59:48.991Z,102257.73
2018-10-04T08:02:18.297Z,102257.69
2018-10-04T08:04:48.920Z,102252.75
2018-10-04T08:07:18.676Z,102250.90
2018-10-04T08:09:48.440Z,102254.83
2018-10-04T08:12:17.682Z,102255.30
2018-10-04T08:14:50.049Z,102255.62
2018-10-04T08:17:19.636Z,102257.16
2018-10-04T08:19:49.171Z,102261.08
2018-10-04T08:22:18.715Z,102261.92
2018-10-04T08:24:48.741Z,102262.89
2018-10-04T08:27:20.107Z,102273.30
2018-10-04T08:29:49.813Z,102268.75
2018-10-04T08:32:19.415Z,102273.52
2018-10-04T08:34:48.775Z,102279.23
2018-10-04T08:37:18.416Z,102277.44
2018-10-04T08:39:47.868Z,102275.92
2018-10-04T08:42:18.484Z,102279.28
2018-10-04T08:44:48.584Z,102274.42
2018-10-04T08:47:18.250Z,102279.58
2018-10-04T08:49:47.888Z,102273.17
2018-10-04T08:52:22.628Z,102271.01
2018-10-04T08:54:52.856Z,102266.95
2018-10-04T08:57:22.393Z,102270.31
2018-10-04T08:59:51.912Z,102269.74
2018-10-04T09:02:22.169Z,102270.97
2018-10-04T09:04:51.790Z,102270.38
2018-10-04T09:07:22.407Z,102276.37
2018-10-04T09:09:51.759Z,102273.33
2018-10-04T09:12:21.611Z,102277.79
2018-10-04T09:14:50.876Z,102277.64
2018-10-04T09:17:20.846Z,102274.05
2018-10-04T09:19:50.423Z,102270.47
2018-10-04T09:22:24.806Z,102271.80
2018-10-04T09:24:54.640Z,102276.30
2018-10-04T09:27:24.817Z,102281.69
2018-10-04T09:29:59.515Z,102273.62
2018-10-04T09:32:31.535Z,102276.91
2018-10-04T09:35:00.858Z,102277.07
2018-10-04T09:37:31.840Z,102274.70
2018-10-04T09:40:01.405Z,102268.08
2018-10-04T09:42:30.782Z,102267.52
2018-10-04T09:45:00.130Z,102266.47
2018-10-04T09:47:30.591Z,102267.80
2018-10-04T09:50:00.548Z,102266.80
2018-10-04T09:52:29.858Z,102265.40
2018-10-04T09:55:05.441Z,102259.56
2018-10-04T09:57:38.525Z,102257.95
2018-10-04T10:00:14.907Z,102260.59
2018-10-04T10:02:49.840Z,102260.03
2018-10-04T10:05:20.221Z,102253.16
2018-10-04T10:07:52.432Z,102256.09
2018-10-04T10:10:22.737Z,102248.66
2018-10-04T10:12:57.426Z,102255.31
2018-10-04T10:15:27.974Z,102250.34
2018-10-04T10:17:57.719Z,102252.94
2018-10-04T10:20:27.731Z,102261.42
2018-10-04T10:22:57.155Z,102257.95
2018-10-04T10:25:26.926Z,102256.72
2018-10-04T10:27:56.454Z,102252.73
2018-10-04T10:30:26.870Z,102251.28
2018-10-04T10:32:56.879Z,102251.11
2018-10-04T10:35:26.976Z,102251.81
2018-10-04T10:37:56.642Z,102245.20
2018-10-04T10:40:27.433Z,102255.12
2018-10-04T10:42:57.644Z,102250.59
2018-10-04T10:45:30.001Z,102246.49
2018-10-04T10:47:59.612Z,102252.49
2018-10-04T10:50:29.073Z,102250.24
2018-10-04T10:52:59.473Z,102247.98
2018-10-04T10:55:29.294Z,102242.66
2018-10-04T10:57:59.530Z,102248.44
2018-10-04T11:00:30.025Z,102247.09
2018-10-04T11:02:59.689Z,102241.91
2018-10-04T11:05:29.122Z,102246.18
2018-10-04T11:07:58.545Z,102247.89
2018-10-04T11:10:27.965Z,102244.83
2018-10-04T11:12:57.470Z,102239.26
2018-10-04T11:15:27.694Z,102249.45
2018-10-04T11:17:57.283Z,102243.63
2018-10-04T11:20:26.709Z,102237.54
2018-10-04T11:22:56.117Z,102243.91
2018-10-04T11:25:25.566Z,102240.91
2018-10-04T11:27:55.066Z,102241.53
2018-10-04T11:30:25.478Z,102239.78
2018-10-04T11:32:55.003Z,102236.20
2018-10-04T11:35:25.458Z,102234.14
2018-10-04T11:37:54.955Z,102229.06
2018-10-04T11:40:24.669Z,102229.48
2018-10-04T11:42:56.165Z,102225.00
2018-10-04T11:45:30.981Z,102221.95
2018-10-04T11:48:00.494Z,102216.63
2018-10-04T11:50:30.363Z,102211.38
2018-10-04T11:52:59.717Z,102208.58
2018-10-04T11:55:29.185Z,102204.48
2018-10-04T11:57:59.137Z,102209.59
2018-10-04T12:00:29.109Z,102197.30
2018-10-04T12:02:58.558Z,102197.61
2018-10-04T12:05:28.739Z,102198.95
2018-10-04T12:07:58.139Z,102185.92
2018-10-04T12:10:27.731Z,102183.06
2018-10-04T12:13:00.098Z,102189.59
2018-10-04T12:15:29.460Z,102182.36
2018-10-04T12:18:00.504Z,102177.98
2018-10-04T12:20:30.507Z,102173.19
2018-10-04T12:22:59.974Z,102172.25
2018-10-04T12:25:29.314Z,102171.86
2018-10-04T12:27:58.980Z,102168.86
2018-10-04T12:30:28.888Z,102169.63
2018-10-04T12:32:58.311Z,102165.25
2018-10-04T12:35:27.776Z,102158.16
2018-10-04T12:37:57.939Z,102161.13
2018-10-04T12:40:27.472Z,102148.24
2018-10-04T12:42:56.883Z,102146.27
2018-10-04T12:45:26.225Z,102143.00
2018-10-04T12:47:55.499Z,102147.36
2018-10-04T12:50:24.963Z,102142.82
2018-10-04T12:52:55.359Z,102145.99
2018-10-04T12:55:24.833Z,102139.80
2018-10-04T12:57:54.878Z,102136.72
2018-10-04T13:00:25.443Z,102142.71
2018-10-04T13:02:54.875Z,102132.13
2018-10-04T13:05:24.417Z,102124.95
2018-10-04T13:07:53.853Z,102123.26
2018-10-04T13:10:23.525Z,102127.27
2018-10-04T13:12:52.833Z,102123.27
2018-10-04T13:15:22.242Z,102117.73
2018-10-04T13:17:51.691Z,102120.18
2018-10-04T13:20:21.317Z,102120.59
2018-10-04T13:22:50.708Z,102114.34
2018-10-04T13:25:20.096Z,102116.31
2018-10-04T13:27:49.486Z,102109.77
2018-10-04T13:30:21.245Z,102112.17
2018-10-04T13:32:50.897Z,102106.63
2018-10-04T13:35:20.607Z,102108.94
2018-10-04T13:37:50.338Z,102110.73
2018-10-04T13:40:19.740Z,102106.16
2018-10-04T13:42:49.136Z,102100.35
2018-10-04T13:45:18.747Z,102101.22
2018-10-04T13:47:48.760Z,102102.52
2018-10-04T13:50:18.477Z,102098.51
2018-10-04T13:52:48.288Z,102098.13
2018-10-04T13:55:17.659Z,102095.36
2018-10-04T13:57:47.777Z,102080.89
2018-10-04T14:00:17.110Z,102091.34
2018-10-04T14:02:46.853Z,102083.75
2018-10-04T14:05:16.299Z,102089.93
2018-10-04T14:07:46.042Z,102085.41
2018-10-04T14:10:16.081Z,102085.25
2018-10-04T14:12:46.336Z,102083.77
2018-10-04T14:15:16.007Z,102079.48
2018-10-04T14:17:45.759Z,102074.02
2018-10-04T14:20:15.571Z,102066.84
2018-10-04T14:22:46.307Z,102062.73
2018-10-04T14:25:16.999Z,102056.43
2018-10-04T14:27:46.658Z,102062.31
2018-10-04T14:30:16.901Z,102047.90
2018-10-04T14:32:46.439Z,102044.08
2018-10-04T14:35:16.745Z,102031.65
2018-10-04T14:37:46.040Z,102024.83
2018-10-04T14:40:15.485Z,102025.66
2018-10-04T14:42:45.126Z,102025.39
2018-10-04T14:45:14.449Z,102016.85
2018-10-04T14:47:45.798Z,102017.11
2018-10-04T14:50:16.559Z,102015.16
2018-10-04T14:52:46.658Z,102018.08
2018-10-04T14:55:16.338Z,102015.49
2018-10-04T14:57:45.609Z,102011.95
2018-10-04T15:00:14.884Z,102011.58
2018-10-04T15:02:44.790Z,102005.78
2018-10-04T15:05:15.148Z,102006.78
2018-10-04T15:07:44.502Z,102011.50
2018-10-04T15:10:13.855Z,102007.66
2018-10-04T15:12:44.073Z,102009.66
2018-10-04T15:15:14.004Z,102007.08
2018-10-04T15:17:43.782Z,102003.07
2018-10-04T15:20:16.150Z,101998.83
2018-10-04T15:22:45.554Z,101996.48
2018-10-04T15:25:15.550Z,101994.20
2018-10-04T15:27:44.971Z,101995.16
2018-10-04T15:30:14.586Z,101991.07
2018-10-04T15:32:44.820Z,101990.74
2018-10-04T15:35:14.141Z,101995.70
2018-10-04T15:37:43.580Z,101988.41
2018-10-04T15:40:13.275Z,101994.78
2018-10-04T15:42:42.850Z,101991.70
2018-10-04T15:45:12.632Z,101987.70
2018-10-04T15:47:43.171Z,101981.12
2018-10-04T15:50:12.634Z,101981.20
2018-10-04T15:52:42.243Z,101981.20
2018-10-04T15:55:13.200Z,101981.28
2018-10-04T15:57:42.561Z,101980.66
2018-10-04T16:00:11.865Z,101977.37
2018-10-04T16:02:41.552Z,101988.95
2018-10-04T16:05:11.163Z,101984.11
2018-10-04T16:07:40.380Z,101980.20
2018-10-04T16:10:10.532Z,101978.16
2018-10-04T16:12:40.422Z,101977.45
2018-10-04T16:15:13.836Z,101972.36
2018-10-04T16:17:43.283Z,101976.14
2018-10-04T16:20:12.726Z,101968.84
2018-10-04T16:22:42.114Z,101973.55
2018-10-04T16:25:11.977Z,101978.16
2018-10-04T16:27:49.099Z,101981.53
2018-10-04T16:30:19.458Z,101977.23
2018-10-04T16:32:49.150Z,101975.67
2018-10-04T16:35:19.260Z,101977.33
2018-10-04T16:37:49.325Z,101973.23
2018-10-04T16:40:18.657Z,101972.22
2018-10-04T16:42:47.915Z,101967.27
2018-10-04T16:45:18.100Z,101968.20
2018-10-04T16:47:47.486Z,101960.14
2018-10-04T16:50:18.697Z,101964.36
2018-10-04T16:52:48.331Z,101969.13
2018-10-04T16:55:18.802Z,101963.16
2018-10-04T16:57:48.266Z,101968.70
2018-10-04T17:00:17.909Z,101967.27
2018-10-04T17:02:47.970Z,101968.41
2018-10-04T17:05:17.759Z,101963.00
2018-10-04T17:07:47.629Z,101958.05
2018-10-04T17:10:18.525Z,101959.27
2018-10-04T17:12:48.380Z,101950.62
2018-10-04T17:15:17.950Z,101962.82
2018-10-04T17:17:47.813Z,101954.27
2018-10-04T17:20:17.235Z,101960.29
2018-10-04T17:22:47.340Z,101960.55
2018-10-04T17:25:18.605Z,101962.58
2018-10-04T17:27:48.360Z,101960.20
2018-10-04T17:30:18.993Z,101963.53
2018-10-04T17:32:50.142Z,101965.53
2018-10-04T17:35:19.879Z,101964.03
2018-10-04T17:37:49.496Z,101955.85
2018-10-04T17:40:19.275Z,101961.38
2018-10-04T17:42:48.981Z,101958.13
2018-10-04T17:45:19.918Z,101948.61
2018-10-04T17:47:49.663Z,101950.16
2018-10-04T17:50:19.152Z,101952.14
2018-10-04T17:52:48.697Z,101945.64
2018-10-04T17:55:18.287Z,101953.33
2018-10-04T17:57:47.661Z,101947.31
2018-10-04T18:00:17.095Z,101941.71
2018-10-04T18:02:46.994Z,101946.70
2018-10-04T18:05:16.506Z,101949.08
2018-10-04T18:07:46.222Z,101945.65
2018-10-04T18:10:16.357Z,101947.56
2018-10-04T18:12:45.948Z,101949.09
2018-10-04T18:15:15.149Z,101946.57
2018-10-04T18:17:44.881Z,101941.39
2018-10-04T18:20:15.393Z,101947.97
2018-10-04T18:22:44.950Z,101944.50
2018-10-04T18:25:14.242Z,101942.05
2018-10-04T18:27:43.636Z,101939.91
2018-10-04T18:30:13.034Z,101944.41
2018-10-04T18:32:42.391Z,101939.72
2018-10-04T18:35:12.052Z,101934.48
2018-10-04T18:37:41.308Z,101931.02
2018-10-04T18:40:11.000Z,101928.30
2018-10-04T18:42:40.563Z,101935.39
2018-10-04T18:45:09.861Z,101933.28
2018-10-04T18:47:39.755Z,101928.49
2018-10-04T18:50:09.610Z,101927.69
2018-10-04T18:52:40.007Z,101929.44
2018-10-04T18:55:09.493Z,101928.20
2018-10-04T18:57:38.815Z,101931.80
2018-10-04T19:00:08.246Z,101928.83
2018-10-04T19:02:37.600Z,101932.45
2018-10-04T19:05:07.280Z,101937.50
2018-10-04T19:07:36.573Z,101929.67
2018-10-04T19:10:06.037Z,101931.64
2018-10-04T19:12:35.519Z,101926.98
2018-10-04T19:15:05.000Z,101923.19
2018-10-04T19:17:34.544Z,101924.19
2018-10-04T19:20:03.977Z,101922.56
2018-10-04T19:22:33.413Z,101921.24
2018-10-04T19:25:03.775Z,101917.52
2018-10-04T19:27:33.127Z,101915.37
2018-10-04T19:30:02.503Z,101921.78
2018-10-04T19:32:31.886Z,101920.58
2018-10-04T19:35:02.262Z,101918.05
2018-10-04T19:37:31.939Z,101915.46
2018-10-04T19:40:01.286Z,101920.83
2018-10-04T19:42:31.158Z,101918.30
2018-10-04T19:45:00.585Z,101918.55
2018-10-04T19:47:30.465Z,101917.67
2018-10-04T19:49:59.753Z,101916.47
2018-10-04T19:52:29.333Z,101913.12
2018-10-04T19:54:58.589Z,101914.19
2018-10-04T19:57:28.127Z,101916.95
2018-10-04T19:59:57.563Z,101910.91
2018-10-04T20:02:26.867Z,101909.31
2018-10-04T20:04:56.354Z,101911.66
2018-10-04T20:07:25.829Z,101913.55
2018-10-04T20:09:55.252Z,101920.29
2018-10-04T20:12:26.481Z,101920.41
2018-10-04T20:14:56.724Z,101918.75
2018-10-04T20:17:26.910Z,101920.70
2018-10-04T20:19:56.326Z,101922.59
2018-10-04T20:22:26.106Z,101927.50
2018-10-04T20:24:57.652Z,101924.46
2018-10-04T20:27:28.672Z,101919.22
2018-10-04T20:29:58.365Z,101910.52
2018-10-04T20:32:28.040Z,101907.50
2018-10-04T20:34:57.485Z,101902.27
2018-10-04T20:37:26.879Z,101905.96
2018-10-04T20:39:56.277Z,101900.39
2018-10-04T20:42:25.688Z,101902.28
2018-10-04T20:44:55.238Z,101901.58
2018-10-04T20:47:24.656Z,101899.09
2018-10-04T20:49:54.096Z,101902.79
2018-10-04T20:52:23.350Z,101897.13
2018-10-04T20:54:52.764Z,101897.58
2018-10-04T20:57:22.213Z,101890.17
2018-10-04T20:59:51.941Z,101889.80
2018-10-04T21:02:21.209Z,101884.67
2018-10-04T21:04:50.709Z,101892.28
2018-10-04T21:07:20.304Z,101897.59
2018-10-04T21:09:49.916Z,101888.39
2018-10-04T21:12:19.702Z,101891.55
2018-10-04T21:14:49.000Z,101890.72
2018-10-04T21:17:18.235Z,101887.73
2018-10-04T21:19:47.478Z,101882.55
2018-10-04T21:22:17.764Z,101889.67
2018-10-04T21:24:47.972Z,101884.92
2018-10-04T21:27:17.458Z,101881.51
2018-10-04T21:29:47.161Z,101880.24
2018-10-04T21:32:16.420Z,101882.57
2018-10-04T21:34:45.959Z,101876.38
2018-10-04T21:37:15.018Z,101873.08
2018-10-04T21:39:44.611Z,101872.27
2018-10-04T21:42:13.981Z,101868.80
2018-10-04T21:44:43.353Z,101873.34
2018-10-04T21:47:12.954Z,101874.25
2018-10-04T21:49:42.482Z,101873.85
2018-10-04T21:52:12.615Z,101868.67
2018-10-04T21:54:42.642Z,101869.33
2018-10-04T21:57:12.311Z,101868.99
2018-10-04T21:59:42.290Z,101874.78
2018-10-04T22:02:11.796Z,101871.31
2018-10-04T22:04:41.313Z,101871.84
2018-10-04T22:07:12.672Z,101877.19
2018-10-04T22:09:41.942Z,101875.05
2018-10-04T22:12:11.376Z,101874.27
2018-10-04T22:14:41.015Z,101867.32
2018-10-04T22:17:10.380Z,101866.45
2018-10-04T22:19:39.894Z,101871.34
2018-10-04T22:22:09.464Z,101870.96
2018-10-04T22:24:39.107Z,101866.16
2018-10-04T22:27:08.713Z,101869.30
2018-10-04T22:29:39.798Z,101866.16
2018-10-04T22:32:09.487Z,101863.08
2018-10-04T22:34:39.039Z,101864.94
2018-10-04T22:37:09.537Z,101858.33
2018-10-04T22:41:58.894Z,101863.61
2018-10-04T22:44:28.673Z,101860.97
2018-10-04T22:46:57.935Z,101856.58
2018-10-04T22:49:27.288Z,101853.06
2018-10-04T22:51:56.572Z,101853.54
2018-10-04T22:54:25.935Z,101852.66
2018-10-04T22:56:55.345Z,101850.95
2018-10-04T22:59:24.975Z,101853.59
2018-10-04T23:01:54.405Z,101844.39
2018-10-04T23:04:23.782Z,101839.55
2018-10-04T23:06:53.254Z,101844.89
2018-10-04T23:09:22.599Z,101835.24
2018-10-04T23:11:52.060Z,101837.98
2018-10-04T23:14:21.561Z,101835.34
2018-10-04T23:16:51.165Z,101833.59
2018-10-04T23:19:20.779Z,101835.02
2018-10-04T23:21:50.137Z,101825.88
2018-10-04T23:24:20.043Z,101830.28
2018-10-04T23:26:49.273Z,101832.09
2018-10-04T23:29:18.763Z,101829.44
2018-10-04T23:31:48.019Z,101828.17
2018-10-04T23:34:17.500Z,101826.91
2018-10-04T23:36:46.752Z,101825.53
2018-10-04T23:39:15.957Z,101826.53
2018-10-04T23:41:45.395Z,101828.28
2018-10-04T23:44:14.723Z,101824.76
2018-10-04T23:46:44.185Z,101818.20
2018-10-04T23:49:13.741Z,101815.22
2018-10-04T23:51:43.064Z,101814.84
2018-10-04T23:54:12.576Z,101812.25
2018-10-04T23:56:42.008Z,101811.42
2018-10-04T23:59:11.554Z,101814.94
